Data for 10/09/2018

Time Sea-Level Adjusted Pressure Absolute Pressure Temperature Relative Humidity Dew Point   
(mb) (inHg) (mb) (inHg) (C) (F) (%) (C) (F)
00:05 1016 30 846 24.98 3.4 38.1 72 -1.1 30
00:10 1016 30 846 24.98 3.3 38 72 -1.1 29.9
00:15 1016 30 846 24.98 3.4 38.1 72 -1.2 29.8
00:20 1016 30 845 24.95 3.4 38.1 72 -1.2 29.9
00:25 1016 30 845 24.95 3.3 37.9 73 -1.1 30
00:30 1016 30 845 24.95 3.2 37.8 73 -1.2 29.9
00:35 1016 30 845 24.95 3.1 37.6 74 -1.1 30.1
00:40 1016 30 845 24.95 3 37.5 74 -1.1 30.1
00:45 1016 30 845 24.95 3 37.5 74 -1.2 29.9
00:50 1016 30 845 24.95 3.1 37.5 74 -1.1 30
00:55 1016 30 845 24.95 3.1 37.5 74 -1.1 30
01:00 1016 30 845 24.95 3 37.4 75 -1 30.2
01:05 1016 30 845 24.95 3 37.3 75 -1.1 30.1
01:10 1016 30 845 24.95 2.9 37.3 75 -1 30.2
01:15 1016 30 845 24.95 2.9 37.2 76 -0.9 30.3
01:20 1016 30 845 24.95 2.8 37 77 -0.8 30.5
01:25 1016 30 845 24.95 2.6 36.8 77 -0.9 30.3
01:30 1016 30 845 24.95 2.7 36.8 77 -1 30.2
01:35 1016 30 845 24.95 2.6 36.8 76 -1.1 30
01:40 1016 30 845 24.95 2.6 36.7 76 -1.1 30
01:45 1016 30 845 24.95 2.6 36.7 77 -1.1 30.1
01:50 1016 30 845 24.95 2.6 36.6 77 -1.1 30
01:55 1016 30 845 24.95 2.5 36.5 77 -1.1 30
02:00 1016 30 845 24.95 2.5 36.5 77 -1.2 29.9
02:05 1016 30 845 24.95 2.5 36.5 77 -1.2 29.9
02:10 1016 30 845 24.95 2.4 36.4 77 -1.2 29.8
02:15 1016 30 845 24.95 2.5 36.4 77 -1.2 29.8
02:20 1016 30 845 24.95 2.4 36.4 76 -1.3 29.7
02:25 1016 30 845 24.95 2.5 36.4 76 -1.4 29.5
02:30 1015 29.97 845 24.95 2.4 36.4 76 -1.3 29.6
02:35 1015 29.97 845 24.95 2.4 36.4 76 -1.4 29.5
02:40 1015 29.97 845 24.95 2.4 36.4 76 -1.4 29.5
02:45 1015 29.97 844 24.92 2.4 36.3 76 -1.4 29.6
02:50 1015 29.97 844 24.92 2.3 36.2 77 -1.3 29.6
02:55 1015 29.97 844 24.92 2.3 36.1 77 -1.3 29.6
03:00 1015 29.97 844 24.92 2.3 36.1 77 -1.3 29.6
03:05 1015 29.97 844 24.92 2.3 36.1 77 -1.3 29.6
03:10 1015 29.97 844 24.92 2.2 36 77 -1.3 29.6
03:15 1015 29.97 844 24.92 2.2 36 77 -1.4 29.5
03:20 1015 29.97 844 24.92 2.2 35.9 77 -1.3 29.6
03:25 1015 29.97 844 24.92 2.2 35.9 77 -1.4 29.5
03:30 1015 29.97 844 24.92 2.1 35.8 77 -1.5 29.4
03:35 1015 29.97 844 24.92 2.1 35.8 78 -1.4 29.5
03:40 1015 29.97 844 24.92 2.1 35.7 78 -1.4 29.4
03:45 1015 29.97 844 24.92 2 35.7 78 -1.5 29.4
03:50 1015 29.97 844 24.92 2 35.7 78 -1.5 29.3
03:55 1015 29.97 844 24.92 2 35.7 77 -1.6 29.1
04:00 1015 29.97 844 24.92 2 35.7 77 -1.6 29.1
04:05 1015 29.97 844 24.92 2 35.6 77 -1.6 29.1
04:10 1015 29.97 844 24.92 2 35.6 77 -1.6 29.1
04:15 1015 29.97 844 24.92 2 35.5 77 -1.6 29.1
04:20 1015 29.97 844 24.92 1.9 35.5 77 -1.6 29
04:25 1015 29.97 844 24.92 1.9 35.4 77 -1.7 29
04:30 1015 29.97 844 24.92 1.9 35.4 77 -1.7 29
04:35 1015 29.97 844 24.92 1.9 35.4 78 -1.6 29.1
04:40 1015 29.97 844 24.92 1.8 35.3 78 -1.6 29.1
04:45 1015 29.97 844 24.92 1.8 35.2 78 -1.6 29.1
04:50 1015 29.97 844 24.92 1.8 35.3 77 -1.7 28.9
04:55 1015 29.97 844 24.92 1.8 35.3 78 -1.6 29
05:00 1015 29.97 844 24.92 1.8 35.2 78 -1.6 29
05:05 1015 29.97 844 24.92 1.7 35.1 78 -1.7 29
05:10 1015 29.97 844 24.92 1.7 35.1 78 -1.7 29
05:15 1015 29.97 844 24.92 1.7 35.1 78 -1.7 29
05:20 1015 29.97 844 24.92 1.7 35.1 78 -1.7 28.9
05:25 1015 29.97 844 24.92 1.7 35.1 78 -1.7 28.9
05:30 1015 29.97 844 24.92 1.7 35.1 78 -1.7 29
05:35 1015 29.97 844 24.92 1.7 35 78 -1.7 28.9
05:40 1015 29.97 844 24.92 1.6 34.9 79 -1.7 29
05:45 1015 29.97 844 24.92 1.6 34.9 78 -1.8 28.7
05:50 1015 29.97 844 24.92 1.6 34.9 79 -1.6 29.1
05:55 1015 29.97 844 24.92 1.6 34.8 79 -1.7 29
06:00 1015 29.97 844 24.92 1.5 34.7 80 -1.6 29.1
06:05 1015 29.97 844 24.92 1.4 34.6 80 -1.6 29.1
06:10 1015 29.97 844 24.92 1.4 34.6 80 -1.7 29
06:15 1015 29.97 844 24.92 1.5 34.7 79 -1.7 28.9
06:20 1015 29.97 844 24.92 1.5 34.7 79 -1.8 28.8
06:25 1015 29.97 844 24.92 1.5 34.8 79 -1.7 29
06:30 1015 29.97 844 24.92 1.5 34.6 80 -1.6 29.2
06:35 1015 29.97 844 24.92 1.3 34.4 81 -1.5 29.2
06:40 1015 29.97 844 24.92 1.3 34.3 81 -1.7 29
06:45 1015 29.97 844 24.92 1.3 34.3 81 -1.6 29.1
06:50 1015 29.97 844 24.92 1.3 34.3 81 -1.6 29.1
06:55 1015 29.97 844 24.92 1.3 34.3 80 -1.7 28.9
07:00 1015 29.97 844 24.92 1.4 34.5 79 -1.8 28.8
07:05 1015 29.97 844 24.92 1.4 34.5 79 -1.9 28.7
07:10 1014 29.94 844 24.92 1.5 34.7 78 -2 28.4
07:15 1015 29.97 844 24.92 1.5 34.8 77 -2.1 28.2
07:20 1015 29.97 844 24.92 1.6 34.9 77 -2.1 28.2
07:25 1015 29.97 844 24.92 1.6 34.9 76 -2.2 28
07:30 1015 29.97 844 24.92 1.6 35 76 -2.1 28.2
07:35 1015 29.97 844 24.92 1.6 34.9 75 -2.3 27.9
07:40 1015 29.97 844 24.92 1.7 35 75 -2.2 28
07:45 1014 29.94 844 24.92 1.6 34.9 76 -2.2 28.1
07:50 1014 29.94 844 24.92 1.6 34.9 76 -2.1 28.2
07:55 1014 29.94 844 24.92 1.6 34.8 77 -2 28.4
08:00 1014 29.94 844 24.92 1.5 34.7 77 -2 28.4
08:05 1014 29.94 844 24.92 1.5 34.7 78 -2 28.4
08:10 1014 29.94 844 24.92 1.5 34.7 77 -2 28.4
08:15 1014 29.94 844 24.92 1.5 34.7 77 -2 28.3
08:20 1014 29.94 844 24.92 1.5 34.8 78 -2 28.5
08:25 1014 29.94 844 24.92 1.6 34.8 77 -2 28.4
08:30 1014 29.94 844 24.92 1.6 34.8 77 -2.1 28.3
08:35 1014 29.94 844 24.92 1.6 34.9 76 -2.1 28.2
08:40 1014 29.94 844 24.92 1.6 35 76 -2.1 28.3
08:45 1014 29.94 844 24.92 1.7 35 76 -2.2 28.1
08:50 1014 29.94 844 24.92 1.7 35.1 75 -2.2 28
08:55 1014 29.94 844 24.92 1.7 35.1 76 -2.2 28.1
09:00 1014 29.94 844 24.92 1.7 35 76 -2.1 28.2
09:05 1014 29.94 844 24.92 1.7 35 77 -2 28.4
09:10 1014 29.94 844 24.92 1.7 35.1 77 -1.9 28.6
09:15 1014 29.94 843 24.89 1.7 35 78 -1.8 28.7
09:20 1014 29.94 843 24.89 1.7 35 78 -1.8 28.8
09:25 1014 29.94 843 24.89 1.6 34.8 79 -1.7 28.9
09:30 1014 29.94 843 24.89 1.6 34.9 79 -1.7 29
09:35 1014 29.94 843 24.89 1.6 34.9 79 -1.6 29
09:40 1014 29.94 843 24.89 1.6 35 79 -1.6 29.2
09:45 1014 29.94 843 24.89 1.6 35 79 -1.6 29.1
09:50 1014 29.94 843 24.89 1.6 34.9 79 -1.6 29.1
09:55 1014 29.94 843 24.89 1.7 35 78 -1.8 28.8
10:00 1014 29.94 843 24.89 1.7 35.1 78 -1.6 29
10:05 1014 29.94 843 24.89 1.8 35.2 77 -1.8 28.7
10:10 1014 29.94 843 24.89 1.9 35.4 76 -1.9 28.6
10:15 1014 29.94 843 24.89 2 35.6 76 -1.9 28.7
10:20 1014 29.94 843 24.89 2 35.7 74 -2.1 28.2
10:25 1014 29.94 843 24.89 2.1 35.8 74 -2 28.4
10:30 1014 29.94 843 24.89 2.2 35.9 73 -2.2 28
10:35 1014 29.94 843 24.89 2.2 36 73 -2.2 28
10:40 1014 29.94 843 24.89 2.2 36 71 -2.4 27.6
10:45 1014 29.94 843 24.89 2.2 36 73 -2.2 28.1
10:50 1014 29.94 843 24.89 2.3 36.1 71 -2.5 27.6
10:55 1014 29.94 843 24.89 2.3 36.1 70 -2.6 27.4
11:00 1014 29.94 843 24.89 2.4 36.2 70 -2.6 27.3
11:05 1014 29.94 843 24.89 2.4 36.4 68 -2.8 27
11:10 1014 29.94 843 24.89 2.4 36.4 68 -2.8 27
11:15 1014 29.94 843 24.89 2.5 36.4 69 -2.7 27.1
11:20 1014 29.94 843 24.89 2.4 36.4 69 -2.8 27
11:25 1014 29.94 843 24.89 2.5 36.5 68 -2.8 26.9
11:30 1014 29.94 843 24.89 2.5 36.6 68 -2.7 27.2
11:35 1014 29.94 843 24.89 2.5 36.5 68 -2.7 27.1
11:40 1014 29.94 843 24.89 2.5 36.4 68 -2.8 27
11:45 1014 29.94 843 24.89 2.5 36.5 69 -2.6 27.3
11:50 1014 29.94 843 24.89 2.4 36.3 69 -2.7 27.2
11:55 1014 29.94 843 24.89 2.4 36.3 70 -2.6 27.3
12:00 1014 29.94 843 24.89 2.3 36.1 71 -2.5 27.5
12:05 1014 29.94 843 24.89 2.3 36.1 72 -2.3 27.9
12:10 1014 29.94 843 24.89 2.2 35.9 71 -2.5 27.4
12:15 1014 29.94 843 24.89 2 35.6 71 -2.6 27.3
12:20 1014 29.94 843 24.89 2 35.5 71 -2.7 27.2
12:25 1014 29.94 843 24.89 2 35.5 71 -2.7 27.2
12:30 1014 29.94 843 24.89 2 35.5 71 -2.7 27.1
12:35 1014 29.94 843 24.89 2 35.6 70 -2.8 26.9
12:40 1014 29.94 843 24.89 2.1 35.7 71 -2.7 27.1
12:45 1014 29.94 843 24.89 2.1 35.8 71 -2.7 27.1
12:50 1014 29.94 843 24.89 2.2 35.9 70 -2.7 27.2
12:55 1014 29.94 843 24.89 2.1 35.7 71 -2.6 27.2
13:00 1014 29.94 843 24.89 2 35.6 71 -2.7 27.2
13:05 1014 29.94 843 24.89 2.1 35.7 71 -2.7 27.2
13:10 1014 29.94 843 24.89 2 35.6 72 -2.6 27.4
13:15 1014 29.94 843 24.89 2 35.7 72 -2.5 27.5
13:20 1014 29.94 843 24.89 2 35.6 73 -2.4 27.7
13:25 1014 29.94 843 24.89 2 35.6 74 -2.1 28.2
13:30 1014 29.94 843 24.89 1.8 35.3 77 -1.8 28.7
13:35 1014 29.94 843 24.89 1.6 34.9 77 -2.1 28.3
13:40 1014 29.94 843 24.89 1.6 34.9 76 -2.2 28.1
13:45 1014 29.94 843 24.89 1.6 34.9 77 -2 28.4
13:50 1014 29.94 843 24.89 1.7 35 75 -2.2 28
13:55 1014 29.94 843 24.89 1.7 35.1 74 -2.5 27.5
14:00 1014 29.94 843 24.89 1.7 35 73 -2.6 27.4
14:05 1014 29.94 843 24.89 1.8 35.2 73 -2.6 27.4
14:10 1014 29.94 843 24.89 1.9 35.4 71 -2.8 27
14:15 1014 29.94 843 24.89 2 35.7 71 -2.8 27
14:20 1014 29.94 843 24.89 2.1 35.8 70 -2.8 27
14:25 1014 29.94 843 24.89 2.1 35.9 69 -3 26.6
14:30 1014 29.94 843 24.89 2.2 36 69 -2.9 26.7
14:35 1014 29.94 843 24.89 2.3 36.1 69 -2.9 26.8
14:40 1014 29.94 843 24.89 2.3 36.2 68 -3 26.6
14:45 1014 29.94 843 24.89 2.4 36.3 68 -3 26.5
14:50 1014 29.94 843 24.89 2.5 36.5 68 -2.9 26.8
14:55 1014 29.94 843 24.89 2.4 36.3 68 -2.9 26.8
15:00 1014 29.94 843 24.89 2.4 36.3 68 -2.9 26.7
15:05 1014 29.94 843 24.89 2.4 36.3 69 -2.8 26.9
15:10 1014 29.94 843 24.89 2.3 36.2 69 -2.8 26.9
15:15 1014 29.94 843 24.89 2.3 36.1 69 -2.9 26.8
15:20 1014 29.94 843 24.89 2.2 36 69 -2.8 26.9
15:25 1014 29.94 844 24.92 2.2 35.9 70 -2.7 27.1
15:30 1014 29.94 844 24.92 2.2 35.9 70 -2.7 27.1
15:35 1014 29.94 844 24.92 2.2 35.9 71 -2.6 27.3
15:40 1014 29.94 844 24.92 2.2 35.9 71 -2.6 27.2
15:45 1014 29.94 844 24.92 2.2 35.9 70 -2.7 27.1
15:50 1014 29.94 844 24.92 2.1 35.8 71 -2.7 27.2
15:55 1014 29.94 844 24.92 2 35.7 72 -2.6 27.4
16:00 1015 29.97 844 24.92 2 35.6 72 -2.5 27.5
16:05 1015 29.97 844 24.92 2 35.6 72 -2.6 27.3
16:10 1015 29.97 844 24.92 2 35.7 72 -2.5 27.6
16:15 1015 29.97 844 24.92 2.1 35.7 72 -2.4 27.6
16:20 1015 29.97 844 24.92 2 35.6 73 -2.4 27.7
16:25 1014 29.94 844 24.92 1.9 35.3 74 -2.3 27.9
16:30 1014 29.94 844 24.92 1.8 35.3 74 -2.3 27.8
16:35 1015 29.97 844 24.92 1.9 35.4 74 -2.3 27.8
16:40 1014 29.94 844 24.92 1.9 35.3 73 -2.5 27.4
16:45 1015 29.97 844 24.92 1.9 35.4 73 -2.4 27.7
16:50 1015 29.97 844 24.92 1.9 35.5 72 -2.6 27.3
16:55 1015 29.97 844 24.92 2 35.7 71 -2.7 27.1
17:00 1015 29.97 844 24.92 2 35.7 71 -2.7 27.1
17:05 1015 29.97 844 24.92 2 35.6 71 -2.8 27
17:10 1015 29.97 844 24.92 2 35.6 71 -2.6 27.3
17:15 1015 29.97 844 24.92 2 35.6 71 -2.7 27.1
17:20 1015 29.97 844 24.92 1.9 35.5 72 -2.6 27.3
17:25 1015 29.97 844 24.92 1.9 35.3 73 -2.4 27.6
17:30 1015 29.97 844 24.92 1.8 35.2 74 -2.5 27.6
17:35 1015 29.97 844 24.92 1.7 35.1 74 -2.3 27.8
17:40 1015 29.97 844 24.92 1.7 35 75 -2.3 27.9
17:45 1015 29.97 844 24.92 1.7 35 74 -2.6 27.4
17:50 1015 29.97 844 24.92 1.8 35.2 72 -2.8 27
17:55 1015 29.97 844 24.92 1.8 35.3 72 -2.7 27.1
18:00 1015 29.97 844 24.92 1.9 35.3 72 -2.6 27.3
18:05 1015 29.97 844 24.92 1.9 35.3 71 -2.8 26.9
18:10 1015 29.97 844 24.92 1.9 35.3 71 -2.8 27
18:15 1015 29.97 844 24.92 1.8 35.2 72 -2.7 27.1
18:20 1015 29.97 844 24.92 1.7 35.1 73 -2.6 27.3
18:25 1015 29.97 844 24.92 1.7 35 74 -2.5 27.5
18:30 1015 29.97 844 24.92 1.7 35 74 -2.4 27.6
18:35 1015 29.97 844 24.92 1.6 34.9 74 -2.5 27.5
18:40 1015 29.97 844 24.92 1.6 34.9 73 -2.8 27
18:45 1015 29.97 844 24.92 1.6 34.9 73 -2.7 27.2
18:50 1015 29.97 844 24.92 1.6 35 73 -2.7 27.2
18:55 1015 29.97 844 24.92 1.6 34.9 74 -2.6 27.3
19:00 1015 29.97 844 24.92 1.5 34.8 74 -2.7 27.2
19:05 1015 29.97 844 24.92 1.5 34.8 75 -2.5 27.5
19:10 1015 29.97 844 24.92 1.5 34.7 75 -2.5 27.5
19:15 1015 29.97 844 24.92 1.5 34.7 73 -2.9 26.8
19:20 1015 29.97 845 24.95 1.6 34.8 73 -2.8 26.9
19:25 1015 29.97 845 24.95 1.6 34.8 73 -2.8 26.9
19:30 1015 29.97 845 24.95 1.6 34.9 72 -2.8 26.9
19:35 1015 29.97 845 24.95 1.6 34.9 73 -2.8 27
19:40 1015 29.97 845 24.95 1.5 34.8 73 -2.8 27
19:45 1016 30 845 24.95 1.5 34.7 74 -2.7 27.1
19:50 1016 30 845 24.95 1.5 34.6 74 -2.7 27.1
19:55 1016 30 845 24.95 1.4 34.6 74 -2.7 27.2
20:00 1016 30 845 24.95 1.4 34.4 75 -2.5 27.5
20:05 1016 30 845 24.95 1.3 34.3 76 -2.5 27.4
20:10 1016 30 845 24.95 1.3 34.3 75 -2.7 27.2
20:15 1016 30 845 24.95 1.3 34.4 75 -2.7 27.2
20:20 1016 30 845 24.95 1.3 34.4 75 -2.6 27.3
20:25 1016 30 845 24.95 1.3 34.3 75 -2.7 27.2
20:30 1016 30 845 24.95 1.3 34.3 75 -2.7 27.2
20:35 1016 30 846 24.98 1.3 34.3 74 -2.9 26.7
20:40 1016 30 846 24.98 1.4 34.5 73 -2.9 26.8
20:45 1016 30 846 24.98 1.4 34.5 74 -2.8 26.9
20:50 1016 30 846 24.98 1.4 34.4 73 -3 26.7
20:55 1016 30 846 24.98 1.3 34.4 73 -2.9 26.7
21:00 1016 30 846 24.98 1.3 34.4 74 -2.9 26.8
21:05 1017 30.03 846 24.98 1.3 34.3 73 -3.1 26.5
21:10 1016 30 846 24.98 1.3 34.3 73 -3.1 26.5
21:15 1017 30.03 846 24.98 1.3 34.3 73 -3.1 26.5
21:20 1016 30 846 24.98 1.3 34.3 72 -3.1 26.3
21:25 1016 30 846 24.98 1.3 34.4 73 -3.1 26.4
21:30 1017 30.03 846 24.98 1.3 34.3 73 -3.1 26.5
21:35 1017 30.03 846 24.98 1.3 34.3 72 -3.2 26.2
21:40 1017 30.03 846 24.98 1.3 34.3 72 -3.1 26.4
21:45 1017 30.03 846 24.98 1.3 34.3 72 -3.2 26.3
21:50 1017 30.03 846 24.98 1.3 34.3 72 -3.2 26.2
21:55 1017 30.03 846 24.98 1.3 34.4 71 -3.3 26.1
22:00 1017 30.03 846 24.98 1.4 34.4 72 -3.2 26.3
22:05 1017 30.03 846 24.98 1.3 34.4 71 -3.3 26.1
22:10 1017 30.03 846 24.98 1.3 34.4 72 -3.3 26.1
22:15 1017 30.03 846 24.98 1.3 34.4 72 -3.1 26.3
22:20 1017 30.03 846 24.98 1.2 34.2 72 -3.3 26.1
22:25 1017 30.03 846 24.98 1.3 34.3 71 -3.3 26
22:30 1017 30.03 846 24.98 1.3 34.3 72 -3.3 26.1
22:35 1017 30.03 846 24.98 1.3 34.3 71 -3.3 26
22:40 1017 30.03 846 24.98 1.3 34.3 71 -3.3 26
22:45 1017 30.03 846 24.98 1.3 34.3 70 -3.5 25.6
22:50 1017 30.03 846 24.98 1.3 34.4 70 -3.5 25.7
22:55 1017 30.03 846 24.98 1.3 34.4 70 -3.5 25.7
23:00 1017 30.03 846 24.98 1.3 34.4 71 -3.5 25.8
23:05 1017 30.03 846 24.98 1.3 34.3 71 -3.4 25.9
23:10 1017 30.03 846 24.98 1.3 34.3 71 -3.4 25.9
23:15 1017 30.03 846 24.98 1.3 34.3 71 -3.5 25.7
23:20 1017 30.03 846 24.98 1.3 34.4 70 -3.6 25.6
23:25 1017 30.03 846 24.98 1.3 34.4 70 -3.6 25.5
23:30 1017 30.03 846 24.98 1.3 34.4 70 -3.5 25.7
23:35 1017 30.03 846 24.98 1.3 34.3 69 -3.7 25.4
23:40 1017 30.03 846 24.98 1.3 34.4 70 -3.6 25.6
23:45 1017 30.03 846 24.98 1.3 34.3 70 -3.6 25.5
23:50 1017 30.03 846 24.98 1.3 34.3 70 -3.6 25.5
23:55 1017 30.03 846 24.98 1.3 34.3 70 -3.6 25.5
24:00 1017 30.03 846 24.98 1.2 34.2 71 -3.6 25.6